sensor_id;sensor_type;location;lat;lon;timestamp;temperature;humidity
2929;DHT22;1474;51.460;7.150;2024-02-15T00:01:06;12.60;99.90
2929;DHT22;1474;51.460;7.150;2024-02-15T00:03:50;12.60;99.90
2929;DHT22;1474;51.460;7.150;2024-02-15T00:06:34;12.60;99.90
2929;DHT22;1474;51.460;7.150;2024-02-15T00:09:19;12.60;99.90
2929;DHT22;1474;51.460;7.150;2024-02-15T00:12:03;12.60;99.90
2929;DHT22;1474;51.460;7.150;2024-02-15T00:14:47;12.50;99.90
2929;DHT22;1474;51.460;7.150;2024-02-15T00:17:33;12.60;99.90
2929;DHT22;1474;51.460;7.150;2024-02-15T00:20:19;12.60;99.90
2929;DHT22;1474;51.460;7.150;2024-02-15T00:23:04;12.60;99.90
2929;DHT22;1474;51.460;7.150;2024-02-15T00:25:49;12.60;99.90
2929;DHT22;1474;51.460;7.150;2024-02-15T00:28:33;12.70;99.90
2929;DHT22;1474;51.460;7.150;2024-02-15T00:31:18;12.70;99.90
2929;DHT22;1474;51.460;7.150;2024-02-15T00:34:02;12.60;99.90
2929;DHT22;1474;51.460;7.150;2024-02-15T00:36:47;12.60;99.90
2929;DHT22;1474;51.460;7.150;2024-02-15T00:39:31;12.60;99.90
2929;DHT22;1474;51.460;7.150;2024-02-15T00:42:15;12.60;99.90
2929;DHT22;1474;51.460;7.150;2024-02-15T00:44:59;12.60;99.90
2929;DHT22;1474;51.460;7.150;2024-02-15T00:47:43;12.60;99.90
2929;DHT22;1474;51.460;7.150;2024-02-15T00:50:27;12.60;99.90
2929;DHT22;1474;51.460;7.150;2024-02-15T00:53:11;12.60;99.90
2929;DHT22;1474;51.460;7.150;2024-02-15T00:55:56;12.60;99.90
2929;DHT22;1474;51.460;7.150;2024-02-15T00:58:40;12.60;99.90
2929;DHT22;1474;51.460;7.150;2024-02-15T01:01:24;12.60;99.90
2929;DHT22;1474;51.460;7.150;2024-02-15T01:04:09;12.60;99.90
2929;DHT22;1474;51.460;7.150;2024-02-15T01:06:53;12.60;99.90
2929;DHT22;1474;51.460;7.150;2024-02-15T01:09:37;12.70;99.90
2929;DHT22;1474;51.460;7.150;2024-02-15T01:12:21;12.60;99.90
2929;DHT22;1474;51.460;7.150;2024-02-15T01:15:05;12.60;99.90
2929;DHT22;1474;51.460;7.150;2024-02-15T01:17:50;12.60;99.90
2929;DHT22;1474;51.460;7.150;2024-02-15T01:20:34;12.60;99.90
2929;DHT22;1474;51.460;7.150;2024-02-15T01:23:20;12.60;99.90
2929;DHT22;1474;51.460;7.150;2024-02-15T01:26:04;12.60;99.90
2929;DHT22;1474;51.460;7.150;2024-02-15T01:28:49;12.60;99.90
2929;DHT22;1474;51.460;7.150;2024-02-15T01:31:33;12.60;99.90
2929;DHT22;1474;51.460;7.150;2024-02-15T01:34:17;12.70;99.90
2929;DHT22;1474;51.460;7.150;2024-02-15T01:37:01;12.70;99.90
2929;DHT22;1474;51.460;7.150;2024-02-15T01:39:45;12.70;99.90
2929;DHT22;1474;51.460;7.150;2024-02-15T01:42:30;12.70;99.90
2929;DHT22;1474;51.460;7.150;2024-02-15T01:45:15;12.70;99.90
2929;DHT22;1474;51.460;7.150;2024-02-15T01:47:59;12.70;99.90
2929;DHT22;1474;51.460;7.150;2024-02-15T01:50:46;12.70;99.90
2929;DHT22;1474;51.460;7.150;2024-02-15T01:53:31;12.70;99.90
2929;DHT22;1474;51.460;7.150;2024-02-15T01:56:17;12.70;99.90
2929;DHT22;1474;51.460;7.150;2024-02-15T01:59:01;12.70;99.90
2929;DHT22;1474;51.460;7.150;2024-02-15T02:01:46;12.70;99.90
2929;DHT22;1474;51.460;7.150;2024-02-15T02:04:31;12.80;99.90
2929;DHT22;1474;51.460;7.150;2024-02-15T02:07:16;12.80;99.90
2929;DHT22;1474;51.460;7.150;2024-02-15T02:10:00;12.80;99.90
2929;DHT22;1474;51.460;7.150;2024-02-15T02:12:44;12.80;99.90
2929;DHT22;1474;51.460;7.150;2024-02-15T02:15:28;12.90;99.90
2929;DHT22;1474;51.460;7.150;2024-02-15T02:18:15;12.90;99.90
2929;DHT22;1474;51.460;7.150;2024-02-15T02:20:59;12.80;99.90
2929;DHT22;1474;51.460;7.150;2024-02-15T02:23:45;12.80;99.90
2929;DHT22;1474;51.460;7.150;2024-02-15T02:26:33;12.80;99.90
2929;DHT22;1474;51.460;7.150;2024-02-15T02:29:18;12.80;99.90
2929;DHT22;1474;51.460;7.150;2024-02-15T02:32:02;12.80;99.90
2929;DHT22;1474;51.460;7.150;2024-02-15T02:34:47;12.80;99.90
2929;DHT22;1474;51.460;7.150;2024-02-15T02:37:31;12.80;99.90
2929;DHT22;1474;51.460;7.150;2024-02-15T02:40:21;12.80;99.90
2929;DHT22;1474;51.460;7.150;2024-02-15T02:43:05;12.80;99.90
2929;DHT22;1474;51.460;7.150;2024-02-15T02:45:49;12.80;99.90
2929;DHT22;1474;51.460;7.150;2024-02-15T02:48:34;12.70;99.90
2929;DHT22;1474;51.460;7.150;2024-02-15T02:51:18;12.60;99.90
2929;DHT22;1474;51.460;7.150;2024-02-15T02:54:03;12.60;99.90
2929;DHT22;1474;51.460;7.150;2024-02-15T02:56:50;12.70;99.90
2929;DHT22;1474;51.460;7.150;2024-02-15T02:59:34;12.70;99.90
2929;DHT22;1474;51.460;7.150;2024-02-15T03:02:19;12.70;99.90
2929;DHT22;1474;51.460;7.150;2024-02-15T03:05:07;12.60;99.90
2929;DHT22;1474;51.460;7.150;2024-02-15T03:07:52;12.70;99.90
2929;DHT22;1474;51.460;7.150;2024-02-15T03:10:37;12.70;99.90
2929;DHT22;1474;51.460;7.150;2024-02-15T03:13:22;12.70;99.90
2929;DHT22;1474;51.460;7.150;2024-02-15T03:16:07;12.70;99.90
2929;DHT22;1474;51.460;7.150;2024-02-15T03:18:52;12.70;99.90
2929;DHT22;1474;51.460;7.150;2024-02-15T03:21:36;12.70;99.90
2929;DHT22;1474;51.460;7.150;2024-02-15T03:24:20;12.70;99.90
2929;DHT22;1474;51.460;7.150;2024-02-15T03:27:05;12.70;99.90
2929;DHT22;1474;51.460;7.150;2024-02-15T03:29:49;12.70;99.90
2929;DHT22;1474;51.460;7.150;2024-02-15T03:32:34;12.70;99.90
2929;DHT22;1474;51.460;7.150;2024-02-15T03:35:19;12.70;99.90
2929;DHT22;1474;51.460;7.150;2024-02-15T03:38:04;12.70;99.90
2929;DHT22;1474;51.460;7.150;2024-02-15T03:40:48;12.70;99.90
2929;DHT22;1474;51.460;7.150;2024-02-15T03:43:33;12.70;99.90
2929;DHT22;1474;51.460;7.150;2024-02-15T03:46:17;12.70;99.90
2929;DHT22;1474;51.460;7.150;2024-02-15T03:49:02;12.80;99.90
2929;DHT22;1474;51.460;7.150;2024-02-15T03:51:46;12.80;99.90
2929;DHT22;1474;51.460;7.150;2024-02-15T03:54:31;12.80;99.90
2929;DHT22;1474;51.460;7.150;2024-02-15T03:57:15;12.80;99.90
2929;DHT22;1474;51.460;7.150;2024-02-15T04:00:01;12.80;99.90
2929;DHT22;1474;51.460;7.150;2024-02-15T04:02:45;12.80;99.90
2929;DHT22;1474;51.460;7.150;2024-02-15T04:05:32;12.80;99.90
2929;DHT22;1474;51.460;7.150;2024-02-15T04:08:16;12.80;99.90
2929;DHT22;1474;51.460;7.150;2024-02-15T04:11:03;12.80;99.90
2929;DHT22;1474;51.460;7.150;2024-02-15T04:13:48;12.80;99.90
2929;DHT22;1474;51.460;7.150;2024-02-15T04:16:32;12.80;99.90
2929;DHT22;1474;51.460;7.150;2024-02-15T04:19:17;12.80;99.90
2929;DHT22;1474;51.460;7.150;2024-02-15T04:22:04;12.80;99.90
2929;DHT22;1474;51.460;7.150;2024-02-15T04:24:51;12.80;99.90
2929;DHT22;1474;51.460;7.150;2024-02-15T04:27:38;12.80;99.90
2929;DHT22;1474;51.460;7.150;2024-02-15T04:30:22;12.80;99.90
2929;DHT22;1474;51.460;7.150;2024-02-15T04:33:07;12.80;99.90
2929;DHT22;1474;51.460;7.150;2024-02-15T04:35:52;12.80;99.90
2929;DHT22;1474;51.460;7.150;2024-02-15T04:38:36;12.80;99.90
2929;DHT22;1474;51.460;7.150;2024-02-15T04:41:20;12.80;99.90
2929;DHT22;1474;51.460;7.150;2024-02-15T04:44:07;12.80;99.90
2929;DHT22;1474;51.460;7.150;2024-02-15T04:46:55;12.90;99.90
2929;DHT22;1474;51.460;7.150;2024-02-15T04:49:40;12.80;99.90
2929;DHT22;1474;51.460;7.150;2024-02-15T04:52:25;12.80;99.80
2929;DHT22;1474;51.460;7.150;2024-02-15T04:55:09;12.80;99.80
2929;DHT22;1474;51.460;7.150;2024-02-15T04:57:54;12.90;99.70
2929;DHT22;1474;51.460;7.150;2024-02-15T05:00:39;12.80;99.60
2929;DHT22;1474;51.460;7.150;2024-02-15T05:03:23;12.70;99.90
2929;DHT22;1474;51.460;7.150;2024-02-15T05:06:08;12.70;99.70
2929;DHT22;1474;51.460;7.150;2024-02-15T05:08:52;12.80;99.70
2929;DHT22;1474;51.460;7.150;2024-02-15T05:11:37;12.70;99.60
2929;DHT22;1474;51.460;7.150;2024-02-15T05:14:24;12.80;99.60
2929;DHT22;1474;51.460;7.150;2024-02-15T05:17:10;12.80;99.60
2929;DHT22;1474;51.460;7.150;2024-02-15T05:19:55;12.80;99.50
2929;DHT22;1474;51.460;7.150;2024-02-15T05:22:43;12.80;99.50
2929;DHT22;1474;51.460;7.150;2024-02-15T05:25:29;12.80;99.40
2929;DHT22;1474;51.460;7.150;2024-02-15T05:28:16;12.80;99.30
2929;DHT22;1474;51.460;7.150;2024-02-15T05:33:56;12.80;99.20
2929;DHT22;1474;51.460;7.150;2024-02-15T05:36:41;12.70;99.20
2929;DHT22;1474;51.460;7.150;2024-02-15T05:39:25;12.70;99.20
2929;DHT22;1474;51.460;7.150;2024-02-15T05:42:09;12.70;99.20
2929;DHT22;1474;51.460;7.150;2024-02-15T05:44:54;12.70;99.10
2929;DHT22;1474;51.460;7.150;2024-02-15T05:47:39;12.80;99.20
2929;DHT22;1474;51.460;7.150;2024-02-15T05:50:23;12.80;99.20
2929;DHT22;1474;51.460;7.150;2024-02-15T05:53:07;12.80;99.10
2929;DHT22;1474;51.460;7.150;2024-02-15T05:55:52;12.80;99.20
2929;DHT22;1474;51.460;7.150;2024-02-15T05:58:36;12.70;99.20
2929;DHT22;1474;51.460;7.150;2024-02-15T06:01:21;12.70;99.10
2929;DHT22;1474;51.460;7.150;2024-02-15T06:03:46;12.70;99.10
2929;DHT22;1474;51.460;7.150;2024-02-15T06:06:13;12.80;99.10
2929;DHT22;1474;51.460;7.150;2024-02-15T06:08:39;12.80;99.10
2929;DHT22;1474;51.460;7.150;2024-02-15T06:11:05;12.90;99.10
2929;DHT22;1474;51.460;7.150;2024-02-15T06:13:31;12.90;99.00
2929;DHT22;1474;51.460;7.150;2024-02-15T06:15:57;12.90;98.90
2929;DHT22;1474;51.460;7.150;2024-02-15T06:18:27;12.90;98.80
2929;DHT22;1474;51.460;7.150;2024-02-15T06:20:59;12.90;98.80
2929;DHT22;1474;51.460;7.150;2024-02-15T06:23:25;12.80;98.90
2929;DHT22;1474;51.460;7.150;2024-02-15T06:25:53;12.80;99.00
2929;DHT22;1474;51.460;7.150;2024-02-15T06:28:20;12.80;99.30
2929;DHT22;1474;51.460;7.150;2024-02-15T06:31:08;12.80;99.10
2929;DHT22;1474;51.460;7.150;2024-02-15T06:33:52;12.80;99.20
2929;DHT22;1474;51.460;7.150;2024-02-15T06:36:50;12.80;99.20
2929;DHT22;1474;51.460;7.150;2024-02-15T06:39:35;12.70;99.30
2929;DHT22;1474;51.460;7.150;2024-02-15T06:42:06;12.70;99.30
2929;DHT22;1474;51.460;7.150;2024-02-15T06:44:32;12.70;99.30
2929;DHT22;1474;51.460;7.150;2024-02-15T06:46:58;12.70;99.20
2929;DHT22;1474;51.460;7.150;2024-02-15T06:49:23;12.60;99.00
2929;DHT22;1474;51.460;7.150;2024-02-15T06:51:52;12.70;99.20
2929;DHT22;1474;51.460;7.150;2024-02-15T06:54:18;12.70;99.20
2929;DHT22;1474;51.460;7.150;2024-02-15T06:56:44;12.70;99.10
2929;DHT22;1474;51.460;7.150;2024-02-15T06:59:13;12.70;99.20
2929;DHT22;1474;51.460;7.150;2024-02-15T07:01:43;12.70;99.20
2929;DHT22;1474;51.460;7.150;2024-02-15T07:04:09;12.80;99.30
2929;DHT22;1474;51.460;7.150;2024-02-15T07:06:39;12.70;99.20
2929;DHT22;1474;51.460;7.150;2024-02-15T07:09:07;12.70;99.10
2929;DHT22;1474;51.460;7.150;2024-02-15T07:11:33;12.80;99.10
2929;DHT22;1474;51.460;7.150;2024-02-15T07:14:00;12.90;99.10
2929;DHT22;1474;51.460;7.150;2024-02-15T07:16:26;12.90;99.00
2929;DHT22;1474;51.460;7.150;2024-02-15T07:18:52;12.90;98.90
2929;DHT22;1474;51.460;7.150;2024-02-15T07:21:20;12.90;98.90
2929;DHT22;1474;51.460;7.150;2024-02-15T07:23:51;13.00;98.90
2929;DHT22;1474;51.460;7.150;2024-02-15T07:26:17;13.00;98.90
2929;DHT22;1474;51.460;7.150;2024-02-15T07:28:45;12.90;99.00
2929;DHT22;1474;51.460;7.150;2024-02-15T07:31:13;12.90;99.10
2929;DHT22;1474;51.460;7.150;2024-02-15T07:33:40;12.90;99.20
2929;DHT22;1474;51.460;7.150;2024-02-15T07:36:08;12.90;99.20
2929;DHT22;1474;51.460;7.150;2024-02-15T07:38:35;13.00;99.10
2929;DHT22;1474;51.460;7.150;2024-02-15T07:41:00;13.00;99.00
2929;DHT22;1474;51.460;7.150;2024-02-15T07:43:27;13.00;99.00
2929;DHT22;1474;51.460;7.150;2024-02-15T07:45:53;12.90;99.00
2929;DHT22;1474;51.460;7.150;2024-02-15T07:48:18;12.90;99.10
2929;DHT22;1474;51.460;7.150;2024-02-15T07:50:44;12.90;99.10
2929;DHT22;1474;51.460;7.150;2024-02-15T07:53:10;12.90;99.20
2929;DHT22;1474;51.460;7.150;2024-02-15T07:55:37;12.80;99.20
2929;DHT22;1474;51.460;7.150;2024-02-15T07:58:03;12.80;99.30
2929;DHT22;1474;51.460;7.150;2024-02-15T08:00:30;12.90;99.30
2929;DHT22;1474;51.460;7.150;2024-02-15T08:02:55;12.90;99.20
2929;DHT22;1474;51.460;7.150;2024-02-15T08:05:23;12.90;99.30
2929;DHT22;1474;51.460;7.150;2024-02-15T08:07:48;12.90;99.40
2929;DHT22;1474;51.460;7.150;2024-02-15T08:10:15;12.90;99.40
2929;DHT22;1474;51.460;7.150;2024-02-15T08:12:45;12.80;99.40
2929;DHT22;1474;51.460;7.150;2024-02-15T08:15:12;12.80;99.70
2929;DHT22;1474;51.460;7.150;2024-02-15T08:17:45;12.80;99.70
2929;DHT22;1474;51.460;7.150;2024-02-15T08:20:14;12.80;99.70
2929;DHT22;1474;51.460;7.150;2024-02-15T08:22:41;12.80;99.80
2929;DHT22;1474;51.460;7.150;2024-02-15T08:25:10;12.80;99.90
2929;DHT22;1474;51.460;7.150;2024-02-15T08:27:40;12.90;99.90
2929;DHT22;1474;51.460;7.150;2024-02-15T08:30:10;12.80;99.70
2929;DHT22;1474;51.460;7.150;2024-02-15T08:32:40;12.90;99.90
2929;DHT22;1474;51.460;7.150;2024-02-15T08:35:11;12.90;99.80
2929;DHT22;1474;51.460;7.150;2024-02-15T08:37:38;12.90;99.90
2929;DHT22;1474;51.460;7.150;2024-02-15T08:40:05;12.80;99.70
2929;DHT22;1474;51.460;7.150;2024-02-15T08:42:38;12.80;99.90
2929;DHT22;1474;51.460;7.150;2024-02-15T08:45:04;12.70;99.60
2929;DHT22;1474;51.460;7.150;2024-02-15T08:47:30;12.70;99.70
2929;DHT22;1474;51.460;7.150;2024-02-15T08:49:56;12.80;99.90
2929;DHT22;1474;51.460;7.150;2024-02-15T08:52:21;12.70;99.90
2929;DHT22;1474;51.460;7.150;2024-02-15T08:54:47;12.80;99.90
2929;DHT22;1474;51.460;7.150;2024-02-15T08:57:13;12.90;99.90
2929;DHT22;1474;51.460;7.150;2024-02-15T08:59:39;12.80;99.90
2929;DHT22;1474;51.460;7.150;2024-02-15T09:02:05;12.80;99.90
2929;DHT22;1474;51.460;7.150;2024-02-15T09:04:31;12.80;99.90
2929;DHT22;1474;51.460;7.150;2024-02-15T09:06:56;12.80;99.90
2929;DHT22;1474;51.460;7.150;2024-02-15T09:09:22;12.80;99.90
2929;DHT22;1474;51.460;7.150;2024-02-15T09:11:48;12.80;99.90
2929;DHT22;1474;51.460;7.150;2024-02-15T09:14:13;12.90;99.90
2929;DHT22;1474;51.460;7.150;2024-02-15T09:16:39;12.90;99.90
2929;DHT22;1474;51.460;7.150;2024-02-15T09:19:05;12.90;99.90
2929;DHT22;1474;51.460;7.150;2024-02-15T09:21:32;12.90;99.90
2929;DHT22;1474;51.460;7.150;2024-02-15T09:23:59;12.90;99.90
2929;DHT22;1474;51.460;7.150;2024-02-15T09:26:25;12.90;99.90
2929;DHT22;1474;51.460;7.150;2024-02-15T09:28:51;12.90;99.90
2929;DHT22;1474;51.460;7.150;2024-02-15T09:31:19;12.90;99.90
2929;DHT22;1474;51.460;7.150;2024-02-15T09:33:44;12.90;99.90
2929;DHT22;1474;51.460;7.150;2024-02-15T09:36:11;12.90;99.90
2929;DHT22;1474;51.460;7.150;2024-02-15T09:38:37;12.90;99.90
2929;DHT22;1474;51.460;7.150;2024-02-15T09:41:03;12.90;99.90
2929;DHT22;1474;51.460;7.150;2024-02-15T09:43:32;12.90;99.90
2929;DHT22;1474;51.460;7.150;2024-02-15T09:45:58;13.00;99.90
2929;DHT22;1474;51.460;7.150;2024-02-15T09:48:25;13.10;99.90
2929;DHT22;1474;51.460;7.150;2024-02-15T09:50:53;13.20;99.90
2929;DHT22;1474;51.460;7.150;2024-02-15T09:53:22;13.20;99.80
2929;DHT22;1474;51.460;7.150;2024-02-15T09:55:55;13.20;99.60
2929;DHT22;1474;51.460;7.150;2024-02-15T09:58:22;13.30;99.20
2929;DHT22;1474;51.460;7.150;2024-02-15T10:00:50;13.30;99.30
2929;DHT22;1474;51.460;7.150;2024-02-15T10:03:18;13.30;99.30
2929;DHT22;1474;51.460;7.150;2024-02-15T10:05:48;13.40;99.00
2929;DHT22;1474;51.460;7.150;2024-02-15T10:08:15;13.40;98.80
2929;DHT22;1474;51.460;7.150;2024-02-15T10:10:41;13.30;98.60
2929;DHT22;1474;51.460;7.150;2024-02-15T10:13:13;13.40;98.90
2929;DHT22;1474;51.460;7.150;2024-02-15T10:15:39;13.40;98.50
2929;DHT22;1474;51.460;7.150;2024-02-15T10:18:10;13.40;98.20
2929;DHT22;1474;51.460;7.150;2024-02-15T10:20:40;13.40;97.90
2929;DHT22;1474;51.460;7.150;2024-02-15T10:23:10;13.40;97.70
2929;DHT22;1474;51.460;7.150;2024-02-15T10:25:37;13.50;97.50
2929;DHT22;1474;51.460;7.150;2024-02-15T10:28:12;13.50;97.40
2929;DHT22;1474;51.460;7.150;2024-02-15T10:30:42;13.60;97.60
2929;DHT22;1474;51.460;7.150;2024-02-15T10:33:19;13.60;97.30
2929;DHT22;1474;51.460;7.150;2024-02-15T10:35:47;13.70;97.20
2929;DHT22;1474;51.460;7.150;2024-02-15T10:38:13;13.70;97.20
2929;DHT22;1474;51.460;7.150;2024-02-15T10:40:39;13.80;97.00
2929;DHT22;1474;51.460;7.150;2024-02-15T10:43:09;13.80;96.80
2929;DHT22;1474;51.460;7.150;2024-02-15T10:45:39;13.90;96.40
2929;DHT22;1474;51.460;7.150;2024-02-15T10:48:10;14.00;96.70
2929;DHT22;1474;51.460;7.150;2024-02-15T10:50:41;14.10;96.50
2929;DHT22;1474;51.460;7.150;2024-02-15T10:53:26;14.10;95.50
2929;DHT22;1474;51.460;7.150;2024-02-15T10:56:14;14.00;95.50
2929;DHT22;1474;51.460;7.150;2024-02-15T10:59:19;14.10;95.20
2929;DHT22;1474;51.460;7.150;2024-02-15T11:01:50;14.00;95.20
2929;DHT22;1474;51.460;7.150;2024-02-15T11:04:20;14.10;95.20
2929;DHT22;1474;51.460;7.150;2024-02-15T11:06:52;14.10;95.30
2929;DHT22;1474;51.460;7.150;2024-02-15T11:09:21;14.10;95.20
2929;DHT22;1474;51.460;7.150;2024-02-15T11:11:48;14.20;94.80
2929;DHT22;1474;51.460;7.150;2024-02-15T11:14:30;14.20;95.10
2929;DHT22;1474;51.460;7.150;2024-02-15T11:16:59;14.30;94.90
2929;DHT22;1474;51.460;7.150;2024-02-15T11:22:09;14.40;95.10
2929;DHT22;1474;51.460;7.150;2024-02-15T11:24:36;14.40;94.90
2929;DHT22;1474;51.460;7.150;2024-02-15T11:27:03;14.40;94.60
2929;DHT22;1474;51.460;7.150;2024-02-15T11:29:55;14.40;94.40
2929;DHT22;1474;51.460;7.150;2024-02-15T11:32:47;14.40;94.30
2929;DHT22;1474;51.460;7.150;2024-02-15T11:40:24;14.50;94.10
2929;DHT22;1474;51.460;7.150;2024-02-15T11:42:53;14.50;94.10
2929;DHT22;1474;51.460;7.150;2024-02-15T11:45:20;14.50;94.00
2929;DHT22;1474;51.460;7.150;2024-02-15T11:47:50;14.50;94.10
2929;DHT22;1474;51.460;7.150;2024-02-15T11:50:18;14.50;94.20
2929;DHT22;1474;51.460;7.150;2024-02-15T11:52:44;14.50;94.00
2929;DHT22;1474;51.460;7.150;2024-02-15T11:55:12;14.50;93.90
2929;DHT22;1474;51.460;7.150;2024-02-15T11:57:53;14.50;93.80
2929;DHT22;1474;51.460;7.150;2024-02-15T12:00:26;14.60;94.00
2929;DHT22;1474;51.460;7.150;2024-02-15T12:03:14;14.60;93.90
2929;DHT22;1474;51.460;7.150;2024-02-15T12:05:58;14.70;93.60
2929;DHT22;1474;51.460;7.150;2024-02-15T12:08:46;14.70;93.50
2929;DHT22;1474;51.460;7.150;2024-02-15T12:11:31;14.80;94.00
2929;DHT22;1474;51.460;7.150;2024-02-15T12:14:15;14.80;93.60
2929;DHT22;1474;51.460;7.150;2024-02-15T12:17:06;14.90;93.40
2929;DHT22;1474;51.460;7.150;2024-02-15T12:19:52;14.90;93.00
2929;DHT22;1474;51.460;7.150;2024-02-15T12:25:02;15.10;92.70
2929;DHT22;1474;51.460;7.150;2024-02-15T12:27:37;15.20;92.80
2929;DHT22;1474;51.460;7.150;2024-02-15T12:30:04;15.30;93.20
2929;DHT22;1474;51.460;7.150;2024-02-15T12:32:32;15.50;92.70
2929;DHT22;1474;51.460;7.150;2024-02-15T12:35:20;15.60;92.20
2929;DHT22;1474;51.460;7.150;2024-02-15T12:37:47;15.70;91.90
2929;DHT22;1474;51.460;7.150;2024-02-15T12:40:19;15.80;91.40
2929;DHT22;1474;51.460;7.150;2024-02-15T12:42:47;15.90;91.10
2929;DHT22;1474;51.460;7.150;2024-02-15T12:45:20;15.90;91.80
2929;DHT22;1474;51.460;7.150;2024-02-15T12:47:49;16.00;91.40
2929;DHT22;1474;51.460;7.150;2024-02-15T12:50:16;16.20;91.00
2929;DHT22;1474;51.460;7.150;2024-02-15T12:52:44;16.30;91.00
2929;DHT22;1474;51.460;7.150;2024-02-15T12:57:41;16.40;90.30
2929;DHT22;1474;51.460;7.150;2024-02-15T13:00:10;16.50;90.50
2929;DHT22;1474;51.460;7.150;2024-02-15T13:02:39;16.60;90.30
2929;DHT22;1474;51.460;7.150;2024-02-15T13:05:06;16.60;90.10
2929;DHT22;1474;51.460;7.150;2024-02-15T13:07:34;16.70;88.70
2929;DHT22;1474;51.460;7.150;2024-02-15T13:10:00;16.70;89.90
2929;DHT22;1474;51.460;7.150;2024-02-15T13:12:26;16.80;89.10
2929;DHT22;1474;51.460;7.150;2024-02-15T13:14:53;16.80;89.00
2929;DHT22;1474;51.460;7.150;2024-02-15T13:17:19;16.90;89.30
2929;DHT22;1474;51.460;7.150;2024-02-15T13:19:46;16.90;88.80
2929;DHT22;1474;51.460;7.150;2024-02-15T13:22:17;16.90;88.50
2929;DHT22;1474;51.460;7.150;2024-02-15T13:24:44;16.90;88.50
2929;DHT22;1474;51.460;7.150;2024-02-15T13:27:10;17.00;88.00
2929;DHT22;1474;51.460;7.150;2024-02-15T13:29:38;16.90;87.30
2929;DHT22;1474;51.460;7.150;2024-02-15T13:32:05;17.00;87.80
2929;DHT22;1474;51.460;7.150;2024-02-15T13:34:31;17.00;87.70
2929;DHT22;1474;51.460;7.150;2024-02-15T13:36:58;17.00;87.10
2929;DHT22;1474;51.460;7.150;2024-02-15T13:39:27;16.90;87.80
2929;DHT22;1474;51.460;7.150;2024-02-15T13:42:01;17.00;88.40
2929;DHT22;1474;51.460;7.150;2024-02-15T13:44:27;17.00;86.50
2929;DHT22;1474;51.460;7.150;2024-02-15T13:46:53;17.00;87.00
2929;DHT22;1474;51.460;7.150;2024-02-15T13:49:24;17.00;87.70
2929;DHT22;1474;51.460;7.150;2024-02-15T13:51:49;16.90;86.80
2929;DHT22;1474;51.460;7.150;2024-02-15T13:54:17;16.90;85.90
2929;DHT22;1474;51.460;7.150;2024-02-15T13:56:43;16.90;87.50
2929;DHT22;1474;51.460;7.150;2024-02-15T13:59:09;16.70;83.20
2929;DHT22;1474;51.460;7.150;2024-02-15T14:01:35;16.80;83.90
2929;DHT22;1474;51.460;7.150;2024-02-15T14:04:08;16.70;83.10
2929;DHT22;1474;51.460;7.150;2024-02-15T14:06:34;16.80;83.30
2929;DHT22;1474;51.460;7.150;2024-02-15T14:09:03;16.80;83.30
2929;DHT22;1474;51.460;7.150;2024-02-15T14:11:28;16.90;83.30
2929;DHT22;1474;51.460;7.150;2024-02-15T14:13:54;16.90;82.50
2929;DHT22;1474;51.460;7.150;2024-02-15T14:16:24;16.90;83.50
2929;DHT22;1474;51.460;7.150;2024-02-15T14:18:50;16.90;83.60
2929;DHT22;1474;51.460;7.150;2024-02-15T14:21:17;16.90;82.80
2929;DHT22;1474;51.460;7.150;2024-02-15T14:23:44;17.00;83.30
2929;DHT22;1474;51.460;7.150;2024-02-15T14:26:10;16.90;84.40
2929;DHT22;1474;51.460;7.150;2024-02-15T14:28:35;16.90;83.40
2929;DHT22;1474;51.460;7.150;2024-02-15T14:31:01;16.90;83.60
2929;DHT22;1474;51.460;7.150;2024-02-15T14:33:46;16.90;83.00
2929;DHT22;1474;51.460;7.150;2024-02-15T14:36:15;16.90;84.00
2929;DHT22;1474;51.460;7.150;2024-02-15T14:38:40;16.80;84.10
2929;DHT22;1474;51.460;7.150;2024-02-15T14:41:06;16.80;83.20
2929;DHT22;1474;51.460;7.150;2024-02-15T14:43:32;16.80;83.40
2929;DHT22;1474;51.460;7.150;2024-02-15T14:45:59;16.80;84.40
2929;DHT22;1474;51.460;7.150;2024-02-15T14:48:26;16.80;84.80
2929;DHT22;1474;51.460;7.150;2024-02-15T14:50:53;16.80;84.60
2929;DHT22;1474;51.460;7.150;2024-02-15T14:53:19;16.90;84.60
2929;DHT22;1474;51.460;7.150;2024-02-15T14:55:44;16.90;85.00
2929;DHT22;1474;51.460;7.150;2024-02-15T14:58:14;16.90;84.20
2929;DHT22;1474;51.460;7.150;2024-02-15T15:00:43;16.80;84.70
2929;DHT22;1474;51.460;7.150;2024-02-15T15:03:12;16.90;85.30
2929;DHT22;1474;51.460;7.150;2024-02-15T15:05:39;16.90;85.80
2929;DHT22;1474;51.460;7.150;2024-02-15T15:08:23;16.90;84.50
2929;DHT22;1474;51.460;7.150;2024-02-15T15:11:07;16.90;85.40
2929;DHT22;1474;51.460;7.150;2024-02-15T15:13:52;16.80;85.40
2929;DHT22;1474;51.460;7.150;2024-02-15T15:16:18;16.80;85.00
2929;DHT22;1474;51.460;7.150;2024-02-15T15:18:46;16.70;85.80
2929;DHT22;1474;51.460;7.150;2024-02-15T15:21:13;16.60;85.90
2929;DHT22;1474;51.460;7.150;2024-02-15T15:23:39;16.60;85.30
2929;DHT22;1474;51.460;7.150;2024-02-15T15:26:08;16.60;85.10
2929;DHT22;1474;51.460;7.150;2024-02-15T15:28:37;16.70;85.80
2929;DHT22;1474;51.460;7.150;2024-02-15T15:31:02;16.70;85.60
2929;DHT22;1474;51.460;7.150;2024-02-15T15:33:28;16.60;85.70
2929;DHT22;1474;51.460;7.150;2024-02-15T15:35:57;16.50;86.40
2929;DHT22;1474;51.460;7.150;2024-02-15T15:38:22;16.60;86.60
2929;DHT22;1474;51.460;7.150;2024-02-15T15:40:48;16.50;86.30
2929;DHT22;1474;51.460;7.150;2024-02-15T15:43:16;16.50;86.50
2929;DHT22;1474;51.460;7.150;2024-02-15T15:45:42;16.50;86.70
2929;DHT22;1474;51.460;7.150;2024-02-15T15:48:09;16.50;87.20
2929;DHT22;1474;51.460;7.150;2024-02-15T15:50:35;16.50;86.90
2929;DHT22;1474;51.460;7.150;2024-02-15T15:55:31;16.50;92.70
2929;DHT22;1474;51.460;7.150;2024-02-15T15:57:57;16.50;89.40
2929;DHT22;1474;51.460;7.150;2024-02-15T16:00:23;16.40;88.60
2929;DHT22;1474;51.460;7.150;2024-02-15T16:02:49;16.20;89.70
2929;DHT22;1474;51.460;7.150;2024-02-15T16:05:20;16.20;90.20
2929;DHT22;1474;51.460;7.150;2024-02-15T16:07:45;16.20;90.40
2929;DHT22;1474;51.460;7.150;2024-02-15T16:10:12;16.20;90.00
2929;DHT22;1474;51.460;7.150;2024-02-15T16:12:42;16.20;90.10
2929;DHT22;1474;51.460;7.150;2024-02-15T16:15:11;16.20;90.30
2929;DHT22;1474;51.460;7.150;2024-02-15T16:17:42;16.20;90.10
2929;DHT22;1474;51.460;7.150;2024-02-15T16:20:09;16.20;90.50
2929;DHT22;1474;51.460;7.150;2024-02-15T16:22:36;16.20;90.40
2929;DHT22;1474;51.460;7.150;2024-02-15T16:25:03;16.10;90.40
2929;DHT22;1474;51.460;7.150;2024-02-15T16:27:33;16.10;90.20
2929;DHT22;1474;51.460;7.150;2024-02-15T16:29:59;16.00;90.60
2929;DHT22;1474;51.460;7.150;2024-02-15T16:32:26;16.00;90.50
2929;DHT22;1474;51.460;7.150;2024-02-15T16:34:52;15.90;90.60
2929;DHT22;1474;51.460;7.150;2024-02-15T16:37:20;15.90;90.40
2929;DHT22;1474;51.460;7.150;2024-02-15T16:39:45;15.90;90.50
2929;DHT22;1474;51.460;7.150;2024-02-15T16:42:11;15.90;90.70
2929;DHT22;1474;51.460;7.150;2024-02-15T16:44:40;16.00;90.80
2929;DHT22;1474;51.460;7.150;2024-02-15T16:47:06;15.90;90.60
2929;DHT22;1474;51.460;7.150;2024-02-15T16:49:31;16.00;91.00
2929;DHT22;1474;51.460;7.150;2024-02-15T16:51:57;15.90;90.70
2929;DHT22;1474;51.460;7.150;2024-02-15T16:54:23;15.90;90.90
2929;DHT22;1474;51.460;7.150;2024-02-15T16:56:51;15.90;90.40
2929;DHT22;1474;51.460;7.150;2024-02-15T16:59:18;15.80;90.50
2929;DHT22;1474;51.460;7.150;2024-02-15T17:01:44;15.80;90.50
2929;DHT22;1474;51.460;7.150;2024-02-15T17:04:10;15.80;90.70
2929;DHT22;1474;51.460;7.150;2024-02-15T17:06:35;15.80;90.60